Station Historical Data
Daily Summary for February 8, 2017 Units:  Metric    English   Both
Next Day »
Daily Weekly Monthly Yearly Custom
  High: Low: Average:
Temperature: 12.8 °C 11.1 °C 12.2 °C
Dew Point: 12.6 °C 10.8 °C 12 °C
Humidity: 99% 98% 99%
Wind Speed: 35.4km/h 0km/h 10.1km/h
Wind Gust: 41.8km/h - -
Wind- - South
Pressure: 1021.2 hPa 1018.2 hPa -
Precipitation: 0 mm    
Historical Graphs
 
 
Tabular Data for February 8, 2017
Time Temperature Dew Point Pressure Wind Wind Speed Wind Gust Humidity Rainfall Rate (Hourly) solar Conditions
00:04 11.1 °C 10.8 °C 1020.2 hPa South 3.2 km/h 19.3 km/h 98% 0 mm 0.00 W/m2
00:09 11.2 °C 10.8 °C 1020.2 hPa Calm   19.3 km/h 98% 0 mm 0.00 W/m2
00:14 11.2 °C 10.8 °C 1020.2 hPa SW 14.5 km/h 17.7 km/h 98% 0 mm 0.00 W/m2
00:19 11.2 °C 10.9 °C 1020.2 hPa Calm   17.7 km/h 98% 0 mm 0.00 W/m2
00:24 11.3 °C 11 °C 1020.2 hPa SSW 8 km/h 14.5 km/h 98% 0 mm 0.00 W/m2
00:29 11.3 °C 11 °C 1020.2 hPa Calm   17.7 km/h 98% 0 mm 0.00 W/m2
00:34 11.3 °C 11 °C 1020.2 hPa South 17.7 km/h 24.1 km/h 98% 0 mm 0.00 W/m2
00:39 11.4 °C 11.1 °C 1020.2 hPa South 6.4 km/h 20.9 km/h 98% 14.22 mm 0.00 W/m2
00:44 11.4 °C 11.1 °C 1020.2 hPa South 6.4 km/h 17.7 km/h 98% 4.57 mm 0.00 W/m2
00:49 11.4 °C 11.1 °C 1020.2 hPa SSW 9.7 km/h 16.1 km/h 98% 7.87 mm 0.00 W/m2
00:54 11.4 °C 11.1 °C 1020.2 hPa South 4.8 km/h 22.5 km/h 98% 3.05 mm 0.00 W/m2
00:59 11.5 °C 11.2 °C 1020.2 hPa South 16.1 km/h 19.3 km/h 98% 8.38 mm 0.00 W/m2
01:04 11.6 °C 11.2 °C 1019.9 hPa South 12.9 km/h 19.3 km/h 98% 8.89 mm 0.00 W/m2
01:09 11.6 °C 11.2 °C 1019.9 hPa SW 14.5 km/h 24.1 km/h 98% 6.6 mm 0.00 W/m2
01:14 11.6 °C 11.2 °C 1019.9 hPa SW 8 km/h 25.7 km/h 98% 4.83 mm 0.00 W/m2
01:19 11.6 °C 11.3 °C 1019.9 hPa SSW 29 km/h 29 km/h 98% 2.54 mm 0.00 W/m2
01:24 11.7 °C 11.4 °C 1019.9 hPa South 11.3 km/h 32.2 km/h 98% 1.52 mm 0.00 W/m2
01:29 11.7 °C 11.4 °C 1019.9 hPa SSW 11.3 km/h 29 km/h 98% 1.02 mm 0.00 W/m2
01:34 11.7 °C 11.5 °C 1019.9 hPa South 20.9 km/h 22.5 km/h 99% 0 mm 0.00 W/m2
01:39 11.7 °C 11.5 °C 1019.9 hPa SSE 12.9 km/h 24.1 km/h 99% 0 mm 0.00 W/m2
01:44 11.7 °C 11.5 °C 1019.9 hPa South 9.7 km/h 20.9 km/h 99% 0 mm 0.00 W/m2
01:49 11.7 °C 11.5 °C 1019.5 hPa South 8 km/h 20.9 km/h 99% 12.7 mm 0.00 W/m2
01:54 11.7 °C 11.5 °C 1019.5 hPa SSW 12.9 km/h 22.5 km/h 99% 9.91 mm 0.00 W/m2
01:59 11.7 °C 11.5 °C 1019.5 hPa SSW 24.1 km/h 24.1 km/h 99% 5.08 mm 0.00 W/m2
02:04 11.7 °C 11.5 °C 1019.5 hPa SSW 22.5 km/h 22.5 km/h 99% 3.56 mm 0.00 W/m2
02:09 11.7 °C 11.5 °C 1019.5 hPa South 11.3 km/h 29 km/h 99% 1.78 mm 0.00 W/m2
02:14 11.7 °C 11.6 °C 1019.5 hPa SSE 12.9 km/h 30.6 km/h 99% 1.02 mm 0.00 W/m2
02:19 11.7 °C 11.6 °C 1019.5 hPa Calm   25.7 km/h 99% 0 mm 0.00 W/m2
02:24 11.7 °C 11.5 °C 1019.5 hPa South 8 km/h 27.4 km/h 99% 0 mm 0.00 W/m2
02:29 11.7 °C 11.6 °C 1019.5 hPa Calm   20.9 km/h 99% 0 mm 0.00 W/m2
02:34 11.7 °C 11.6 °C 1019.5 hPa South 12.9 km/h 14.5 km/h 99% 0 mm 0.00 W/m2
02:39 11.7 °C 11.6 °C 1019.5 hPa SSE 12.9 km/h 20.9 km/h 99% 1.02 mm 0.00 W/m2
02:44 11.7 °C 11.5 °C 1019.5 hPa SSE 14.5 km/h 25.7 km/h 99% 1.02 mm 0.00 W/m2
02:49 11.7 °C 11.6 °C 1019.5 hPa SSW 16.1 km/h 25.7 km/h 99% 1.02 mm 0.00 W/m2
02:54 11.7 °C 11.6 °C 1019.5 hPa SSE 19.3 km/h 25.7 km/h 99% 1.02 mm 0.00 W/m2
02:59 11.7 °C 11.6 °C 1019.2 hPa South 12.9 km/h 17.7 km/h 99% 2.29 mm 0.00 W/m2
03:04 11.7 °C 11.6 °C 1019.2 hPa SSW 17.7 km/h 22.5 km/h 99% 2.29 mm 0.00 W/m2
03:09 11.7 °C 11.5 °C 1019.2 hPa Calm   22.5 km/h 99% 1.78 mm 0.00 W/m2
03:14 11.7 °C 11.5 °C 1019.2 hPa South 12.9 km/h 20.9 km/h 99% 1.78 mm 0.00 W/m2
03:19 11.7 °C 11.5 °C 1019.2 hPa Calm   22.5 km/h 99% 1.52 mm 0.00 W/m2
03:24 11.6 °C 11.4 °C 1019.2 hPa South 9.7 km/h 17.7 km/h 99% 1.52 mm 0.00 W/m2
03:29 11.6 °C 11.4 °C 1019.2 hPa South 6.4 km/h 12.9 km/h 99% 1.27 mm 0.00 W/m2
03:34 11.6 °C 11.4 °C 1019.2 hPa South 6.4 km/h 16.1 km/h 99% 1.02 mm 0.00 W/m2
03:39 11.6 °C 11.4 °C 1018.8 hPa SSE 11.3 km/h 12.9 km/h 99% 1.02 mm 0.00 W/m2
03:44 11.6 °C 11.4 °C 1018.8 hPa Calm   11.3 km/h 99% 1.02 mm 0.00 W/m2
03:49 11.6 °C 11.4 °C 1018.8 hPa Calm     99% 0 mm 0.00 W/m2
03:54 11.6 °C 11.4 °C 1018.5 hPa Calm     99% 0 mm 0.00 W/m2
03:59 11.5 °C 11.3 °C 1018.5 hPa Calm     99% 0 mm 0.00 W/m2
04:04 11.5 °C 11.3 °C 1018.5 hPa Calm     99% 0 mm 0.00 W/m2
04:09 11.5 °C 11.3 °C 1018.2 hPa Calm     99% 0 mm 0.00 W/m2
04:14 11.5 °C 11.3 °C 1018.2 hPa Calm     99% 0 mm 0.00 W/m2
04:19 11.5 °C 11.3 °C 1018.5 hPa SSE 11.3 km/h 12.9 km/h 99% 0 mm 0.00 W/m2
04:24 11.5 °C 11.3 °C 1018.5 hPa Calm   12.9 km/h 99% 0 mm 0.00 W/m2
04:29 11.5 °C 11.3 °C 1018.5 hPa SSE 6.4 km/h 12.9 km/h 99% 0 mm 0.00 W/m2
04:34 11.5 °C 11.3 °C 1018.5 hPa SSE 3.2 km/h 19.3 km/h 99% 0 mm 0.00 W/m2
04:39 11.4 °C 11.3 °C 1018.5 hPa Calm   8 km/h 99% 0 mm 0.00 W/m2
04:44 11.4 °C 11.3 °C 1018.5 hPa Calm   9.7 km/h 99% 0 mm 0.00 W/m2
04:49 11.4 °C 11.3 °C 1018.5 hPa Calm     99% 1.27 mm 0.00 W/m2
04:54 11.4 °C 11.1 °C 1018.5 hPa Calm     98% 2.29 mm 0.00 W/m2
04:59 11.3 °C 11 °C 1018.5 hPa Calm     98% 2.29 mm 0.00 W/m2
05:04 11.3 °C 11 °C 1018.5 hPa SSE 1.6 km/h 16.1 km/h 98% 2.29 mm 0.00 W/m2
05:09 11.2 °C 10.9 °C 1018.2 hPa SSE 6.4 km/h 16.1 km/h 98% 3.56 mm 0.00 W/m2
05:14 11.2 °C 11.1 °C 1018.2 hPa SSE 14.5 km/h 22.5 km/h 99% 3.05 mm 0.00 W/m2
05:19 11.2 °C 11.1 °C 1018.2 hPa SSE 6.4 km/h 12.9 km/h 99% 1.78 mm 0.00 W/m2
05:24 11.3 °C 11.1 °C 1018.2 hPa SSE 11.3 km/h 16.1 km/h 99% 1.78 mm 0.00 W/m2
05:29 11.3 °C 11.2 °C 1018.2 hPa SE 9.7 km/h 19.3 km/h 99% 8.38 mm 0.00 W/m2
05:34 11.4 °C 11.3 °C 1018.2 hPa Calm   17.7 km/h 99% 5.33 mm 0.00 W/m2
05:39 11.4 °C 11.3 °C 1018.2 hPa South 8 km/h 16.1 km/h 99% 5.84 mm 0.00 W/m2
05:45 11.5 °C 11.3 °C 1018.2 hPa South 9.7 km/h 25.7 km/h 99% 22.35 mm 0.00 W/m2
05:50 11.6 °C 11.4 °C 1018.2 hPa South 17.7 km/h 20.9 km/h 99% 10.16 mm 0.00 W/m2
05:55 11.6 °C 11.4 °C 1018.2 hPa South 14.5 km/h 19.3 km/h 99% 4.57 mm 0.00 W/m2
06:00 11.6 °C 11.4 °C 1018.2 hPa Calm   19.3 km/h 99% 3.3 mm 0.00 W/m2
06:05 11.7 °C 11.5 °C 1018.2 hPa SSE 11.3 km/h 30.6 km/h 99% 2.03 mm 0.00 W/m2
06:10 11.8 °C 11.6 °C 1018.2 hPa SSE 20.9 km/h 24.1 km/h 99% 1.78 mm 0.00 W/m2
06:15 11.8 °C 11.6 °C 1018.2 hPa SSE 12.9 km/h 27.4 km/h 99% 1.78 mm 0.00 W/m2
06:20 11.8 °C 11.7 °C 1018.2 hPa SSW 22.5 km/h 27.4 km/h 99% 2.54 mm 0.00 W/m2
06:25 11.9 °C 11.7 °C 1018.2 hPa South 19.3 km/h 38.6 km/h 99% 3.56 mm 0.00 W/m2
06:30 11.9 °C 11.8 °C 1018.5 hPa SSW 29 km/h 32.2 km/h 99% 3.81 mm 0.00 W/m2
06:35 12 °C 11.8 °C 1018.5 hPa SSW 14.5 km/h 37 km/h 99% 5.08 mm 0.00 W/m2
06:40 12.1 °C 11.9 °C 1018.5 hPa SW 8 km/h 30.6 km/h 99% 6.1 mm 0.00 W/m2
06:45 12.1 °C 11.9 °C 1018.5 hPa South 9.7 km/h 25.7 km/h 99% 5.33 mm 0.00 W/m2
06:50 12.1 °C 11.9 °C 1018.5 hPa South 9.7 km/h 38.6 km/h 99% 6.1 mm 0.00 W/m2
06:55 12.1 °C 11.9 °C 1018.5 hPa SSW 11.3 km/h 33.8 km/h 99% 7.37 mm 0.00 W/m2
07:00 12.1 °C 11.9 °C 1018.5 hPa South 6.4 km/h 32.2 km/h 99% 5.33 mm 0.00 W/m2
07:05 12.1 °C 11.9 °C 1018.5 hPa South 9.7 km/h 32.2 km/h 99% 4.06 mm 0.00 W/m2
07:10 12.2 °C 12 °C 1018.8 hPa SSW 17.7 km/h 30.6 km/h 99% 1.78 mm 0.00 W/m2
07:15 12.1 °C 11.9 °C 1018.5 hPa SSW 12.9 km/h 33.8 km/h 99% 1.78 mm 0.00 W/m2
07:20 12.2 °C 12 °C 1018.5 hPa SSW 20.9 km/h 37 km/h 99% 1.52 mm 0.00 W/m2
07:25 12.2 °C 12 °C 1018.8 hPa South 22.5 km/h 32.2 km/h 99% 1.52 mm 0.00 W/m2
07:30 12.2 °C 12 °C 1018.8 hPa South 11.3 km/h 30.6 km/h 99% 1.27 mm 0.00 W/m2
07:35 12.2 °C 12 °C 1018.8 hPa South 8 km/h 33.8 km/h 99% 1.27 mm 5.00 W/m2
07:40 12.2 °C 12 °C 1018.8 hPa SSW 29 km/h 38.6 km/h 99% 5.08 mm 7.00 W/m2
07:45 12.2 °C 12 °C 1019.2 hPa South 35.4 km/h 40.2 km/h 99% 4.83 mm 7.00 W/m2
07:50 12.2 °C 12.1 °C 1018.8 hPa South 27.4 km/h 38.6 km/h 99% 4.57 mm 7.00 W/m2
07:55 12.2 °C 12.1 °C 1019.2 hPa SSW 17.7 km/h 22.5 km/h 99% 3.3 mm 7.00 W/m2
08:00 12.2 °C 12.1 °C 1019.2 hPa SSW 12.9 km/h 30.6 km/h 99% 4.32 mm 14.00 W/m2
08:05 12.2 °C 12.1 °C 1019.2 hPa SSW 3.2 km/h 27.4 km/h 99% 4.83 mm 9.00 W/m2
08:10 12.2 °C 12.1 °C 1019.2 hPa SSW 24.1 km/h 29 km/h 99% 3.3 mm 11.00 W/m2
08:15 12.2 °C 12.1 °C 1019.2 hPa SSE 25.7 km/h 33.8 km/h 99% 2.54 mm 14.00 W/m2
08:20 12.2 °C 12.1 °C 1019.2 hPa SSW 19.3 km/h 24.1 km/h 99% 1.52 mm 12.00 W/m2
08:25 12.2 °C 12.1 °C 1019.2 hPa SSE 12.9 km/h 27.4 km/h 99% 1.27 mm 12.00 W/m2
08:30 12.2 °C 12.1 °C 1019.2 hPa South 24.1 km/h 32.2 km/h 99% 9.14 mm 18.00 W/m2
08:35 12.2 °C 12.1 °C 1019.2 hPa SE 8 km/h 30.6 km/h 99% 2.29 mm 19.00 W/m2
08:40 12.2 °C 12.1 °C 1019.2 hPa SSE 14.5 km/h 27.4 km/h 99% 2.29 mm 16.00 W/m2
08:45 12.3 °C 12.1 °C 1019.2 hPa South 19.3 km/h 33.8 km/h 99% 2.29 mm 12.00 W/m2
08:50 12.3 °C 12.1 °C 1019.2 hPa SSW 14.5 km/h 29 km/h 99% 2.54 mm 12.00 W/m2
08:55 12.3 °C 12.1 °C 1019.2 hPa SSW 22.5 km/h 35.4 km/h 99% 6.35 mm 12.00 W/m2
09:00 12.3 °C 12.1 °C 1019.2 hPa SSW 27.4 km/h 41.8 km/h 99% 4.83 mm 14.00 W/m2
09:05 12.3 °C 12.1 °C 1019.2 hPa South 25.7 km/h 40.2 km/h 99% 2.29 mm 18.00 W/m2
09:10 12.3 °C 12.2 °C 1019.2 hPa SSW 24.1 km/h 40.2 km/h 99% 2.03 mm 21.00 W/m2
09:15 12.3 °C 12.2 °C 1019.5 hPa South 12.9 km/h 40.2 km/h 99% 1.52 mm 16.00 W/m2
09:20 12.3 °C 12.2 °C 1019.5 hPa South 8 km/h 37 km/h 99% 1.27 mm 19.00 W/m2
09:25 12.3 °C 12.2 °C 1019.9 hPa South 14.5 km/h 38.6 km/h 99% 6.35 mm 16.00 W/m2
09:30 12.3 °C 12.2 °C 1019.9 hPa South 14.5 km/h 35.4 km/h 99% 6.1 mm 21.00 W/m2
09:35 12.4 °C 12.2 °C 1019.9 hPa SW 19.3 km/h 32.2 km/h 99% 4.32 mm 19.00 W/m2
09:40 12.3 °C 12.2 °C 1019.9 hPa SSW 14.5 km/h 29 km/h 99% 6.86 mm 19.00 W/m2
09:45 12.3 °C 12.2 °C 1019.9 hPa SSW 11.3 km/h 35.4 km/h 99% 8.38 mm 26.00 W/m2
09:50 12.3 °C 12.2 °C 1020.2 hPa SSW 12.9 km/h 30.6 km/h 99% 5.08 mm 23.00 W/m2
09:55 12.3 °C 12.2 °C 1020.2 hPa SSW 22.5 km/h 38.6 km/h 99% 2.54 mm 23.00 W/m2
10:00 12.3 °C 12.2 °C 1020.2 hPa South 12.9 km/h 35.4 km/h 99% 2.54 mm 26.00 W/m2
10:05 12.3 °C 12.2 °C 1020.5 hPa SSW 11.3 km/h 33.8 km/h 99% 4.57 mm 19.00 W/m2
10:10 12.3 °C 12.2 °C 1020.9 hPa South 35.4 km/h 38.6 km/h 99% 3.56 mm 33.00 W/m2
10:15 12.3 °C 12.2 °C 1020.9 hPa SSW 17.7 km/h 24.1 km/h 99% 2.03 mm 32.00 W/m2
10:20 12.3 °C 12.2 °C 1020.9 hPa SSW 32.2 km/h 35.4 km/h 99% 5.08 mm 26.00 W/m2
10:25 12.3 °C 12.2 °C 1020.9 hPa SSW 11.3 km/h 37 km/h 99% 2.29 mm 33.00 W/m2
10:30 12.3 °C 12.2 °C 1020.9 hPa SW 20.9 km/h 33.8 km/h 99% 4.32 mm 30.00 W/m2
10:35 12.3 °C 12.2 °C 1021.2 hPa SW 17.7 km/h 33.8 km/h 99% 2.54 mm 32.00 W/m2
10:40 12.3 °C 12.2 °C 1021.2 hPa Calm   32.2 km/h 99% 1.27 mm 35.00 W/m2
10:45 12.3 °C 12.2 °C 1021.2 hPa SW 25.7 km/h 29 km/h 99% 1.27 mm 37.00 W/m2
10:50 12.3 °C 12.2 °C 1021.2 hPa South 17.7 km/h 29 km/h 99% 2.03 mm 30.00 W/m2
10:55 12.3 °C 12.2 °C 1021.2 hPa SSW 17.7 km/h 35.4 km/h 99% 2.29 mm 32.00 W/m2
11:00 12.3 °C 12.2 °C 1021.2 hPa Calm   33.8 km/h 99% 3.56 mm 28.00 W/m2
11:06 12.3 °C 12.2 °C 1021.2 hPa South 19.3 km/h 33.8 km/h 99% 3.3 mm 39.00 W/m2
11:11 12.3 °C 12.2 °C 1021.2 hPa South 19.3 km/h 19.3 km/h 99% 2.29 mm 35.00 W/m2
11:16 12.3 °C 12.2 °C 1021.2 hPa SSW 20.9 km/h 24.1 km/h 99% 3.56 mm 40.00 W/m2
11:21 12.4 °C 12.2 °C 1020.9 hPa South 19.3 km/h 22.5 km/h 99% 3.56 mm 44.00 W/m2
11:26 12.4 °C 12.2 °C 1021.2 hPa SSW 9.7 km/h 14.5 km/h 99% 3.05 mm 42.00 W/m2
11:31 12.4 °C 12.2 °C 1021.2 hPa Calm     99% 2.54 mm 21.00 W/m2
11:36 12.4 °C 12.2 °C 1021.2 hPa SSW 19.3 km/h 19.3 km/h 99% 1.52 mm 30.00 W/m2
11:41 12.4 °C 12.2 °C 1021.2 hPa SSW 9.7 km/h 9.7 km/h 99% 4.83 mm 35.00 W/m2
11:46 12.4 °C 12.2 °C 1020.9 hPa South 3.2 km/h 8 km/h 99% 4.32 mm 37.00 W/m2
11:51 12.4 °C 12.2 °C 1020.9 hPa SSW 14.5 km/h 14.5 km/h 99% 2.29 mm 35.00 W/m2
11:56 12.4 °C 12.2 °C 1020.9 hPa SSW 12.9 km/h 14.5 km/h 99% 2.29 mm 35.00 W/m2
12:01 12.4 °C 12.2 °C 1020.9 hPa South 19.3 km/h 19.3 km/h 99% 2.03 mm 40.00 W/m2
12:06 12.4 °C 12.2 °C 1020.9 hPa SW 9.7 km/h 20.9 km/h 99% 3.05 mm 44.00 W/m2
12:11 12.4 °C 12.2 °C 1020.9 hPa South 25.7 km/h 25.7 km/h 99% 3.56 mm 40.00 W/m2
12:16 12.4 °C 12.2 °C 1020.9 hPa SW 8 km/h 22.5 km/h 99% 4.32 mm 40.00 W/m2
12:21 12.4 °C 12.2 °C 1020.9 hPa WSW 8 km/h 19.3 km/h 99% 4.06 mm 49.00 W/m2
12:26 12.4 °C 12.2 °C 1020.9 hPa SSW 11.3 km/h 19.3 km/h 99% 3.56 mm 35.00 W/m2
12:31 12.4 °C 12.2 °C 1020.5 hPa South 16.1 km/h 16.1 km/h 99% 6.86 mm 39.00 W/m2
12:36 12.3 °C 12.2 °C 1020.5 hPa SE 14.5 km/h 29 km/h 99% 4.32 mm 30.00 W/m2
12:41 12.4 °C 12.2 °C 1020.5 hPa SE 8 km/h 19.3 km/h 99% 4.83 mm 39.00 W/m2
12:46 12.3 °C 12.2 °C 1020.5 hPa SSW 9.7 km/h 17.7 km/h 99% 5.08 mm 35.00 W/m2
12:51 12.3 °C 12.2 °C 1020.5 hPa SSW 11.3 km/h 12.9 km/h 99% 9.65 mm 30.00 W/m2
12:56 12.3 °C 12.2 °C 1020.5 hPa South 11.3 km/h 25.7 km/h 99% 7.11 mm 28.00 W/m2
13:01 12.3 °C 12.2 °C 1020.2 hPa SSE 6.4 km/h 22.5 km/h 99% 8.38 mm 46.00 W/m2
13:06 12.3 °C 12.1 °C 1019.9 hPa SSW 12.9 km/h 17.7 km/h 99% 4.32 mm 37.00 W/m2
13:11 12.3 °C 12.1 °C 1019.9 hPa Calm     99% 2.29 mm 28.00 W/m2
13:16 12.3 °C 12.1 °C 1019.9 hPa SSW 17.7 km/h 17.7 km/h 99% 1.78 mm 28.00 W/m2
13:21 12.3 °C 12.1 °C 1019.9 hPa SSW 8 km/h 19.3 km/h 99% 2.03 mm 26.00 W/m2
13:26 12.3 °C 12.2 °C 1019.5 hPa SSW 8 km/h 17.7 km/h 99% 3.05 mm 49.00 W/m2
13:31 12.3 °C 12.2 °C 1019.5 hPa South 14.5 km/h 17.7 km/h 99% 4.83 mm 23.00 W/m2
13:36 12.3 °C 12.2 °C 1019.5 hPa Calm   3.2 km/h 99% 19.3 mm 28.00 W/m2
13:41 12.3 °C 12.2 °C 1019.5 hPa South 16.1 km/h 19.3 km/h 99% 8.64 mm 33.00 W/m2
13:46 12.4 °C 12.2 °C 1019.5 hPa SSE 9.7 km/h 20.9 km/h 99% 6.1 mm 30.00 W/m2
13:51 12.4 °C 12.3 °C 1019.5 hPa SSW 9.7 km/h 20.9 km/h 99% 4.32 mm 37.00 W/m2
13:56 12.4 °C 12.3 °C 1019.2 hPa South 16.1 km/h 16.1 km/h 99% 3.56 mm 32.00 W/m2
14:01 12.4 °C 12.3 °C 1019.5 hPa South 14.5 km/h 29 km/h 99% 3.81 mm 33.00 W/m2
14:06 12.4 °C 12.3 °C 1019.2 hPa South 9.7 km/h 14.5 km/h 99% 9.4 mm 42.00 W/m2
14:11 12.5 °C 12.3 °C 1019.2 hPa South 6.4 km/h 11.3 km/h 99% 4.32 mm 26.00 W/m2
14:16 12.5 °C 12.3 °C 1019.2 hPa Calm     99% 6.1 mm 39.00 W/m2
14:21 12.5 °C 12.3 °C 1019.2 hPa SSE 11.3 km/h 19.3 km/h 99% 3.3 mm 44.00 W/m2
14:26 12.5 °C 12.3 °C 1019.2 hPa South 12.9 km/h 17.7 km/h 99% 3.05 mm 33.00 W/m2
14:32 12.5 °C 12.3 °C 1019.2 hPa SSE 9.7 km/h 24.1 km/h 99% 3.05 mm 35.00 W/m2
14:37 12.6 °C 12.4 °C 1019.2 hPa SSE 12.9 km/h 24.1 km/h 99% 4.83 mm 23.00 W/m2
14:41 12.6 °C 12.4 °C 1019.2 hPa SSW 11.3 km/h 29 km/h 99% 4.83 mm 19.00 W/m2
14:46 12.6 °C 12.4 °C 1019.2 hPa SSW 8 km/h 22.5 km/h 99% 3.3 mm 32.00 W/m2
14:52 12.6 °C 12.4 °C 1019.2 hPa South 22.5 km/h 24.1 km/h 99% 3.05 mm 25.00 W/m2
14:57 12.6 °C 12.4 °C 1019.5 hPa SSE 32.2 km/h 32.2 km/h 99% 2.54 mm 26.00 W/m2
15:01 12.6 °C 12.4 °C 1019.5 hPa SW 8 km/h 24.1 km/h 99% 3.56 mm 26.00 W/m2
15:06 12.6 °C 12.4 °C 1019.5 hPa SW 12.9 km/h 22.5 km/h 99% 3.3 mm 26.00 W/m2
15:11 12.6 °C 12.4 °C 1019.9 hPa SSW 16.1 km/h 22.5 km/h 99% 9.91 mm 14.00 W/m2
15:16 12.6 °C 12.4 °C 1019.9 hPa SSW 11.3 km/h 20.9 km/h 99% 6.1 mm 14.00 W/m2
15:22 12.6 °C 12.4 °C 1019.9 hPa SSW 16.1 km/h 17.7 km/h 99% 3.3 mm 18.00 W/m2
15:26 12.6 °C 12.4 °C 1019.9 hPa South 9.7 km/h 14.5 km/h 99% 2.03 mm 11.00 W/m2
15:32 12.6 °C 12.4 °C 1019.9 hPa South 4.8 km/h 17.7 km/h 99% 2.03 mm 16.00 W/m2
15:37 12.6 °C 12.4 °C 1019.9 hPa South 19.3 km/h 20.9 km/h 99% 2.54 mm 14.00 W/m2
15:42 12.7 °C 12.5 °C 1019.9 hPa South 9.7 km/h 12.9 km/h 99% 2.03 mm 18.00 W/m2
15:46 12.6 °C 12.4 °C 1019.9 hPa South 12.9 km/h 12.9 km/h 99% 2.29 mm 12.00 W/m2
15:52 12.7 °C 12.5 °C 1019.5 hPa SSE 14.5 km/h 22.5 km/h 99% 3.81 mm 11.00 W/m2
15:57 12.7 °C 12.5 °C 1019.9 hPa South 12.9 km/h 17.7 km/h 99% 7.11 mm 11.00 W/m2
16:02 12.7 °C 12.5 °C 1019.5 hPa South 6.4 km/h 14.5 km/h 99% 4.57 mm 9.00 W/m2
16:06 12.7 °C 12.5 °C 1019.5 hPa SSE 14.5 km/h 19.3 km/h 99% 7.37 mm 12.00 W/m2
16:12 12.7 °C 12.5 °C 1019.5 hPa South 9.7 km/h 9.7 km/h 99% 3.81 mm 11.00 W/m2
16:17 12.7 °C 12.5 °C 1019.2 hPa SSW 4.8 km/h 12.9 km/h 99% 5.08 mm 12.00 W/m2
16:22 12.7 °C 12.5 °C 1019.2 hPa SSE 1.6 km/h 14.5 km/h 99% 3.3 mm 11.00 W/m2
16:26 12.7 °C 12.5 °C 1019.2 hPa South 12.9 km/h 17.7 km/h 99% 4.57 mm 11.00 W/m2
16:31 12.7 °C 12.5 °C 1019.2 hPa South 14.5 km/h 16.1 km/h 99% 1.78 mm 7.00 W/m2
16:36 12.7 °C 12.6 °C 1019.2 hPa SSE 17.7 km/h 29 km/h 99% 1.78 mm 7.00 W/m2
16:41 12.7 °C 12.6 °C 1019.2 hPa SSE 8 km/h 25.7 km/h 99% 1.52 mm 7.00 W/m2
16:46 12.7 °C 12.6 °C 1019.2 hPa SSW 14.5 km/h 14.5 km/h 99% 1.02 mm 5.00 W/m2
16:51 12.7 °C 12.6 °C 1019.2 hPa SSE 19.3 km/h 22.5 km/h 99% 1.02 mm 5.00 W/m2
16:56 12.7 °C 12.6 °C 1019.2 hPa South 11.3 km/h 19.3 km/h 99% 2.03 mm 5.00 W/m2
17:01 12.7 °C 12.6 °C 1019.2 hPa South 3.2 km/h 14.5 km/h 99% 3.3 mm 5.00 W/m2
17:06 12.7 °C 12.6 °C 1019.2 hPa South 19.3 km/h 27.4 km/h 99% 2.29 mm 0.00 W/m2
17:11 12.8 °C 12.6 °C 1019.2 hPa SSE 16.1 km/h 29 km/h 99% 1.27 mm 0.00 W/m2
17:16 12.8 °C 12.6 °C 1019.2 hPa SE 17.7 km/h 35.4 km/h 99% 1.02 mm 0.00 W/m2
17:21 12.8 °C 12.6 °C 1019.2 hPa SSE 19.3 km/h 29 km/h 99% 0 mm 0.00 W/m2
17:26 12.8 °C 12.6 °C 1019.2 hPa SSE 25.7 km/h 25.7 km/h 99% 0 mm 0.00 W/m2
17:31 12.8 °C 12.6 °C 1019.2 hPa South 12.9 km/h 27.4 km/h 99% 0 mm 0.00 W/m2
17:36 12.8 °C 12.6 °C 1019.2 hPa South 19.3 km/h 27.4 km/h 99% 0 mm 0.00 W/m2
17:41 12.8 °C 12.5 °C 1019.2 hPa SSE 12.9 km/h 20.9 km/h 98% 0 mm 0.00 W/m2
17:46 12.8 °C 12.5 °C 1019.5 hPa SSE 16.1 km/h 20.9 km/h 98% 0 mm 0.00 W/m2
17:51 12.8 °C 12.5 °C 1019.5 hPa SSW 16.1 km/h 19.3 km/h 98% 0 mm 0.00 W/m2
17:56 12.8 °C 12.5 °C 1019.5 hPa SSE 8 km/h 12.9 km/h 98% 0 mm 0.00 W/m2
18:02 12.8 °C 12.5 °C 1019.5 hPa South 14.5 km/h 24.1 km/h 98% 0 mm 0.00 W/m2
18:07 12.8 °C 12.5 °C 1019.5 hPa South 16.1 km/h 20.9 km/h 98% 0 mm 0.00 W/m2
18:12 12.8 °C 12.5 °C 1019.5 hPa SSE 16.1 km/h 19.3 km/h 98% 0 mm 0.00 W/m2
18:17 12.8 °C 12.5 °C 1019.5 hPa SSE 6.4 km/h 11.3 km/h 98% 0 mm 0.00 W/m2
18:22 12.8 °C 12.5 °C 1019.5 hPa SSE 11.3 km/h 19.3 km/h 98% 0 mm 0.00 W/m2
18:27 12.8 °C 12.5 °C 1019.9 hPa SSE 12.9 km/h 16.1 km/h 98% 0 mm 0.00 W/m2
18:32 12.8 °C 12.5 °C 1019.9 hPa SSE 11.3 km/h 17.7 km/h 98% 0 mm 0.00 W/m2
18:37 12.8 °C 12.5 °C 1019.9 hPa SE 11.3 km/h 16.1 km/h 98% 0 mm 0.00 W/m2
18:42 12.8 °C 12.5 °C 1019.5 hPa SE 12.9 km/h 22.5 km/h 98% 0 mm 0.00 W/m2
18:47 12.8 °C 12.5 °C 1019.5 hPa Calm   1.6 km/h 98% 0 mm 0.00 W/m2
18:52 12.8 °C 12.5 °C 1019.5 hPa SSE 17.7 km/h 17.7 km/h 98% 0 mm 0.00 W/m2
18:57 12.8 °C 12.5 °C 1019.5 hPa SSE 14.5 km/h 20.9 km/h 98% 0 mm 0.00 W/m2
19:02 12.8 °C 12.5 °C 1019.9 hPa SSE 16.1 km/h 19.3 km/h 98% 0 mm 0.00 W/m2
19:07 12.8 °C 12.5 °C 1019.9 hPa Calm     98% 0 mm 0.00 W/m2
19:12 12.8 °C 12.5 °C 1019.5 hPa SSE 12.9 km/h 22.5 km/h 98% 0 mm 0.00 W/m2
19:17 12.8 °C 12.5 °C 1019.9 hPa SSE 6.4 km/h 12.9 km/h 98% 0 mm 0.00 W/m2
19:22 12.8 °C 12.5 °C 1019.9 hPa SSE 11.3 km/h 11.3 km/h 98% 0 mm 0.00 W/m2
19:27 12.8 °C 12.5 °C 1019.9 hPa SSE 1.6 km/h 11.3 km/h 98% 0 mm 0.00 W/m2
19:32 12.8 °C 12.5 °C 1019.9 hPa SSE 1.6 km/h 14.5 km/h 98% 0 mm 0.00 W/m2
19:37 12.8 °C 12.5 °C 1019.9 hPa Calm     98% 0 mm 0.00 W/m2
19:42 12.8 °C 12.5 °C 1019.9 hPa South 9.7 km/h 12.9 km/h 98% 0 mm 0.00 W/m2
19:47 12.8 °C 12.5 °C 1019.9 hPa South 11.3 km/h 12.9 km/h 98% 0 mm 0.00 W/m2
19:52 12.8 °C 12.5 °C 1019.9 hPa SSE 8 km/h 17.7 km/h 98% 0 mm 0.00 W/m2
19:57 12.8 °C 12.5 °C 1019.9 hPa SSE 8 km/h 14.5 km/h 98% 0 mm 0.00 W/m2
20:02 12.8 °C 12.5 °C 1019.9 hPa Calm     98% 0 mm 0.00 W/m2
20:07 12.8 °C 12.5 °C 1019.9 hPa Calm     98% 0 mm 0.00 W/m2
20:12 12.8 °C 12.5 °C 1019.9 hPa Calm     98% 0 mm 0.00 W/m2
20:17 12.7 °C 12.4 °C 1019.5 hPa Calm     98% 0 mm 0.00 W/m2
20:22 12.7 °C 12.4 °C 1019.5 hPa Calm     98% 0 mm 0.00 W/m2
20:27 12.7 °C 12.4 °C 1019.5 hPa Calm     98% 0 mm 0.00 W/m2
20:32 12.7 °C 12.4 °C 1019.5 hPa Calm     98% 0 mm 0.00 W/m2
20:37 12.7 °C 12.4 °C 1019.9 hPa Calm     98% 0 mm 0.00 W/m2
20:42 12.7 °C 12.3 °C 1019.5 hPa Calm     98% 0 mm 0.00 W/m2
20:47 12.7 °C 12.3 °C 1019.5 hPa Calm     98% 0 mm 0.00 W/m2
20:52 12.7 °C 12.3 °C 1019.9 hPa Calm     98% 0 mm 0.00 W/m2
20:57 12.7 °C 12.3 °C 1019.9 hPa Calm     98% 0 mm 0.00 W/m2
21:02 12.7 °C 12.3 °C 1019.9 hPa Calm     98% 0 mm 0.00 W/m2
21:07 12.7 °C 12.3 °C 1019.5 hPa Calm     98% 0 mm 0.00 W/m2
21:12 12.7 °C 12.3 °C 1019.9 hPa Calm     98% 0 mm 0.00 W/m2
21:17 12.6 °C 12.3 °C 1019.5 hPa Calm     98% 0 mm 0.00 W/m2
21:22 12.7 °C 12.3 °C 1019.5 hPa Calm     98% 0 mm 0.00 W/m2
21:27 12.6 °C 12.3 °C 1019.9 hPa Calm     98% 0 mm 0.00 W/m2
21:32 12.6 °C 12.3 °C 1019.9 hPa Calm     98% 0 mm 0.00 W/m2
21:37 12.6 °C 12.3 °C 1019.9 hPa Calm     98% 0 mm 0.00 W/m2
21:42 12.6 °C 12.3 °C 1019.9 hPa Calm     98% 0 mm 0.00 W/m2
21:47 12.6 °C 12.3 °C 1019.5 hPa Calm     98% 0 mm 0.00 W/m2
21:52 12.6 °C 12.3 °C 1019.5 hPa Calm     98% 0 mm 0.00 W/m2
21:57 12.6 °C 12.3 °C 1019.5 hPa Calm     98% 0 mm 0.00 W/m2
22:02 12.6 °C 12.2 °C 1019.5 hPa Calm     98% 0 mm 0.00 W/m2
22:07 12.6 °C 12.2 °C 1019.2 hPa Calm     98% 0 mm 0.00 W/m2
22:12 12.6 °C 12.2 °C 1019.2 hPa Calm     98% 0 mm 0.00 W/m2
22:17 12.6 °C 12.2 °C 1019.2 hPa Calm     98% 0 mm 0.00 W/m2
22:22 12.6 °C 12.2 °C 1019.2 hPa Calm     98% 0 mm 0.00 W/m2
22:27 12.6 °C 12.2 °C 1019.2 hPa Calm     98% 0 mm 0.00 W/m2
22:32 12.5 °C 12.2 °C 1019.2 hPa Calm     98% 0 mm 0.00 W/m2
22:37 12.5 °C 12.2 °C 1019.5 hPa Calm     98% 0 mm 0.00 W/m2
22:38 12.5 °C 12.2 °C 1019.5 hPa Calm     98% 0 mm 0.00 W/m2
22:43 12.4 °C 12.1 °C 1019.5 hPa Calm     98% 0 mm 0.00 W/m2
22:48 12.4 °C 12.1 °C 1019.5 hPa Calm     98% 0 mm 0.00 W/m2
22:53 12.4 °C 12.1 °C 1019.9 hPa Calm     98% 0 mm 0.00 W/m2
22:58 12.4 °C 12.1 °C 1019.9 hPa Calm     98% 0 mm 0.00 W/m2
23:03 12.4 °C 12.1 °C 1019.9 hPa Calm     98% 0 mm 0.00 W/m2
23:08 12.4 °C 12.1 °C 1019.9 hPa Calm     98% 0 mm 0.00 W/m2
23:13 12.4 °C 12.1 °C 1019.9 hPa South 1.6 km/h 1.6 km/h 98% 0 mm 0.00 W/m2
23:18 12.4 °C 12.1 °C 1019.9 hPa Calm     98% 0 mm 0.00 W/m2
23:23 12.4 °C 12.1 °C 1019.9 hPa Calm   1.6 km/h 98% 0 mm 0.00 W/m2
23:28 12.4 °C 12.1 °C 1019.9 hPa Calm   11.3 km/h 98% 0 mm 0.00 W/m2
23:33 12.5 °C 12.2 °C 1020.2 hPa SSW 11.3 km/h 16.1 km/h 98% 0 mm 0.00 W/m2
23:38 12.5 °C 12.2 °C 1019.9 hPa Calm     98% 0 mm 0.00 W/m2
23:43 12.5 °C 12.2 °C 1019.9 hPa Calm   12.9 km/h 98% 0 mm 0.00 W/m2
23:48 12.5 °C 12.2 °C 1019.9 hPa SSW 14.5 km/h 17.7 km/h 98% 0 mm 0.00 W/m2
23:53 12.5 °C 12.2 °C 1019.9 hPa Calm     98% 0 mm 0.00 W/m2
23:58 12.5 °C 12.2 °C 1019.9 hPa SSE 11.3 km/h 17.7 km/h 98% 0 mm 0.00 W/m2
Foresthill Weather
 WU-history PHP script courtesy of   Juneau County Weather.
powered by Cumulus v1.9.3 (1059)
Ambient Weather VWS v14.00
Top Contact Website Map Copyright © 2007 - 2018 Foresthillweather.com Never base important decisions on this or any weather information obtained from the Internet